AirNav   Air Wisconsin Up To $57,000 Bonus
 
 1108 users online  

73MO SSM Health St Mary's Hospital-St Louis Heliport
St Louis, Missouri, USA

GOING TO ST LOUIS?


FAA INFORMATION EFFECTIVE 20 MAY 2021

Location

FAA Identifier: 73MO
Lat/Long: 38-37-59.8100N 090-18-41.4100W
38-37.996833N 090-18.690167W
38.6332806,-90.3115028
(estimated)
Elevation: 688 ft. / 210 m (estimated)
Variation: 02E (1985)
Time zone: UTC -5 (UTC -6 during Standard Time)
Zip code: 63117

Heliport Operations

Heliport use: Private use, MEDICAL.
Activation date: 07/1982
Control tower: no
ARTCC: KANSAS CITY CENTER
FSS: SAINT LOUIS FLIGHT SERVICE STATION
Attendance: UNATNDD
Segmented circle: no

Heliport Communications

WX ASOS at STL (7 nm N): 125.025 (314-890-4790)
WX ASOS at CPS (8 nm SE): PHONE 618-332-0001
WX ASOS at SUS (16 nm W): 134.8 (314-890-7255)
WX ASOS at SET (19 nm N): 118.075 (636-250-4590)
WX AWOS-3 at ALN (20 nm NE): 128.0 (618-259-7231)

Nearby radio navigation aids

VOR radial/distance  VOR name  Freq  Var
STLr149/15.8ST LOUIS VORTAC117.4001E
TOYr247/19.5TROY VORTAC116.0004E
FTZr092/31.1FORISTELL VORTAC110.8005E

 
NDB name  Hdg/Dist  Freq  Var  ID
EAVES104/11.422701WFZ ..-. --..
ACORE300/13.635000ECP -.-. .--.
CIVIC MEMORIAL219/19.626301WCVM -.-. ...- --

Heliport Services

Runway Information

Helipad H1

Dimensions: 48 x 48 ft. / 15 x 15 m
Surface: concrete
Latitude: 38-37.996833N
Longitude: 090-18.690167W
Elevation: 688.0 ft.
Traffic pattern: leftleft

Heliport Ownership and Management from official FAA records

Ownership: Privately-owned
Owner: SSM HEALTH CARE ST. LOUIS
6420 CLAYTON RD
ST LOUIS, MO 63117
Phone (314) 989-2155
Manager: MADISON HIMELRIGHT
1015 CORPORATE SQ DR., SUITE 160
ST LOUIS, MO 63132
Phone (314) 989-6134

Additional Remarks

A52-H1 ANTS & BLDGS AROUND PAD.
A33 ROOFTOP HELIPORT.
OWNER DOES NOT WANT ARPT CHARTED.
FOR CD CTC ST LOUIS APCH AT 314-890-1018.

Instrument Procedures

There are no published instrument procedures at 73MO.

Some nearby airports with instrument procedures:

KSTL - St Louis Lambert International Airport (7 nm N)
KCPS - St Louis Downtown Airport (8 nm SE)
1H0 - Creve Coeur Airport (11 nm NW)
KSUS - Spirit of St Louis Airport (16 nm W)
KSET - St Charles County Smartt Airport (19 nm N)
KALN - St Louis Regional Airport (20 nm NE)
 
Loc | Ops | Rwys | IFR | FBO | Links
Com | Nav | Svcs | Stats | Notes
Area around 73MO (SSM Health St Mary's Hospital-St Louis Heliport)
 
Road maps at: MapQuest Bing Google
 
Aerial photo
No photo
 
Sectional chart

 
Airport distance calculator
Flying to SSM Health St Mary's Hospital-St Louis Heliport? Find the distance to fly.

From to 73MO

Sunrise and sunset
Times for 12-Jun-2021
 Local
(UTC-5)
 Zulu
(UTC)
Morning civil twilight05:0510:05
Sunrise05:3710:37
Sunset20:2501:25
Evening civil twilight20:5701:57

Current date and time
Zulu (UTC)  12-Jun-2021 18:22:28
Local (UTC-5)  12-Jun-2021 13:22:28
 
METAR
KSTL 
7nm N 
121751Z 31008KT 280V340 10SM FEW040 SCT250 34/21 A2990 RMK AO2 SLP108 T03440211 10344 20267 50004
KCPS 
9nm SE 
121753Z 30008KT 10SM CLR 34/20 A2987 RMK AO2 SLP111 T03440200 10344 20244 53000
KSUS 
16nm W 
121754Z 29007KT 10SM CLR 33/22 A2989 RMK AO2 SLP111 T03280217 10333 20233 50003
KSET 
19nm N 
121754Z AUTO 31010G17KT 10SM CLR 34/21 A2987 RMK AO2 SLP110 T03390206 10344 20250 50002
KALN 
20nm NE 
121750Z 31008KT 10SM FEW050 34/23 A2989
TAF
KSTL 
7nm N 
121739Z 1218/1324 31010G17KT P6SM SCT050 FM122000 32010G17KT P6SM VCTS BKN060CB FM130000 33008KT P6SM FEW070 SCT250 FM131500 36008KT P6SM SKC
KCPS 
9nm SE 
121739Z 1218/1318 30009G16KT P6SM SCT050 FM122000 31010G17KT P6SM VCTS BKN060CB FM130000 33007KT P6SM FEW070 SCT250 FM131500 36009KT P6SM SKC
KSUS 
16nm W 
121739Z 1218/1318 31010G17KT P6SM SCT050 FM122000 32010G17KT P6SM VCTS BKN060CB FM130000 33007KT P6SM FEW070 SCT250 FM131500 36008KT P6SM SKC
NOTAMs
Click for the latest NOTAMs
NOTAMs are issued by the DoD/FAA and will open in a separate window not controlled by AirNav.

 

 
 

Would you like to see your business listed on this page?

 If your business provides an interesting product or service to pilots, flight crews, aircraft, or users of the SSM Health St Mary's Hospital-St Louis Heliport, you should consider listing it here.  To start the listing process, click on the button below
 
Add a business
 

Other Pages about SSM Health St Mary's Hospital-St Louis Heliport

Update a link
 
Copyright © AirNav, LLC. All rights reserved. Privacy Policy  Contact